createdAt,value
2022-08-24T00:00:30.492Z,4.43
2022-08-24T00:02:59.694Z,3.95
2022-08-24T00:05:29.108Z,4.22
2022-08-24T00:07:58.832Z,4.22
2022-08-24T00:10:28.262Z,3.88
2022-08-24T00:12:59.005Z,3.90
2022-08-24T00:15:29.994Z,3.55
2022-08-24T00:17:59.398Z,4.55
2022-08-24T00:20:29.406Z,4.32
2022-08-24T00:22:59.437Z,3.50
2022-08-24T00:25:29.577Z,4.05
2022-08-24T00:27:59.880Z,3.75
2022-08-24T00:30:30.409Z,3.70
2022-08-24T00:33:00.572Z,3.75
2022-08-24T00:35:32.176Z,3.72
2022-08-24T00:38:01.243Z,4.47
2022-08-24T00:40:34.865Z,3.72
2022-08-24T00:43:06.056Z,3.83
2022-08-24T00:45:42.202Z,4.13
2022-08-24T00:48:17.175Z,3.63
2022-08-24T00:50:50.880Z,3.70
2022-08-24T00:53:27.152Z,3.97
2022-08-24T00:55:59.935Z,4.35
2022-08-24T00:58:35.036Z,3.90
2022-08-24T01:01:08.024Z,3.45
2022-08-24T01:03:39.027Z,4.63
2022-08-24T01:06:08.554Z,3.78
2022-08-24T01:08:37.769Z,4.32
2022-08-24T01:11:13.246Z,3.97
2022-08-24T01:13:44.675Z,3.83
2022-08-24T01:16:37.963Z,4.53
2022-08-24T01:19:11.784Z,3.95
2022-08-24T01:21:48.404Z,3.70
2022-08-24T01:24:19.269Z,4.30
2022-08-24T01:26:52.053Z,4.95
2022-08-24T01:29:27.236Z,4.30
2022-08-24T01:31:57.964Z,3.60
2022-08-24T01:34:28.499Z,3.92
2022-08-24T01:37:00.403Z,3.97
2022-08-24T01:39:33.982Z,4.68
2022-08-24T01:42:03.587Z,4.35
2022-08-24T01:44:36.086Z,4.15
2022-08-24T01:47:07.905Z,3.70
2022-08-24T01:49:40.203Z,3.78
2022-08-24T01:52:12.914Z,4.00
2022-08-24T01:54:44.340Z,4.50
2022-08-24T01:59:46.390Z,4.03
2022-08-24T02:02:19.875Z,3.80
2022-08-24T02:04:49.614Z,3.90
2022-08-24T02:07:20.090Z,3.80
2022-08-24T02:09:50.803Z,4.37
2022-08-24T02:12:21.122Z,3.22
2022-08-24T02:15:11.717Z,3.78
2022-08-24T02:17:41.000Z,3.40
2022-08-24T02:20:11.363Z,3.70
2022-08-24T02:22:40.395Z,3.55
2022-08-24T02:25:14.177Z,3.40
2022-08-24T02:27:44.076Z,3.75
2022-08-24T02:30:15.169Z,3.80
2022-08-24T02:32:44.801Z,3.47
2022-08-24T02:35:14.503Z,3.70
2022-08-24T02:37:45.106Z,4.10
2022-08-24T02:40:17.823Z,3.75
2022-08-24T02:42:48.318Z,4.32
2022-08-24T02:45:18.314Z,4.13
2022-08-24T02:47:48.023Z,3.72
2022-08-24T02:50:19.509Z,4.13
2022-08-24T02:52:49.054Z,3.90
2022-08-24T02:55:20.734Z,4.10
2022-08-24T02:57:53.141Z,3.80
2022-08-24T03:00:23.576Z,3.80
2022-08-24T03:02:53.340Z,4.05
2022-08-24T03:05:24.514Z,4.18
2022-08-24T03:07:53.688Z,4.20
2022-08-24T03:10:24.370Z,4.30
2022-08-24T03:15:28.190Z,4.10
2022-08-24T03:17:58.626Z,4.78
2022-08-24T03:20:29.645Z,4.60
2022-08-24T03:22:59.692Z,5.07
2022-08-24T03:25:31.265Z,5.03
2022-08-24T03:28:00.368Z,4.97
2022-08-24T03:30:30.814Z,4.72
2022-08-24T03:33:01.454Z,4.88
2022-08-24T03:35:31.290Z,5.38
2022-08-24T03:38:01.858Z,5.83
2022-08-24T03:40:33.421Z,5.70
2022-08-24T03:43:04.427Z,5.80
2022-08-24T03:45:33.831Z,6.20
2022-08-24T03:48:03.219Z,6.40
2022-08-24T03:50:32.698Z,6.93
2022-08-24T03:53:01.768Z,6.32
2022-08-24T03:55:32.621Z,7.68
2022-08-24T03:58:01.930Z,5.90
2022-08-24T04:00:31.338Z,6.63
2022-08-24T04:03:01.567Z,7.00
2022-08-24T04:05:35.202Z,7.63
2022-08-24T04:08:06.014Z,7.38
2022-08-24T04:10:38.596Z,6.93
2022-08-24T04:13:08.585Z,7.45
2022-08-24T04:15:41.599Z,7.30
2022-08-24T04:18:12.432Z,6.95
2022-08-24T04:20:43.270Z,7.82
2022-08-24T04:23:16.778Z,7.45
2022-08-24T04:25:49.750Z,7.32
2022-08-24T04:28:21.139Z,7.63
2022-08-24T04:30:51.640Z,7.35
2022-08-24T04:33:38.629Z,7.63
2022-08-24T04:36:10.250Z,6.72
2022-08-24T04:38:43.311Z,7.65
2022-08-24T04:41:43.212Z,6.95
2022-08-24T04:44:13.981Z,8.00
2022-08-24T04:46:43.527Z,7.18
2022-08-24T04:49:13.185Z,7.25
2022-08-24T04:51:42.887Z,6.80
2022-08-24T04:54:12.235Z,8.10
2022-08-24T04:56:43.483Z,8.95
2022-08-24T04:59:12.637Z,10.23
2022-08-24T05:01:44.599Z,8.32
2022-08-24T05:04:14.662Z,8.88
2022-08-24T05:06:45.871Z,8.73
2022-08-24T05:09:15.618Z,8.40
2022-08-24T05:11:49.705Z,8.07
2022-08-24T05:14:28.572Z,9.73
2022-08-24T05:16:58.633Z,10.18
2022-08-24T05:19:29.545Z,8.98
2022-08-24T05:21:59.767Z,8.52
2022-08-24T05:24:30.162Z,8.70
2022-08-24T05:27:01.468Z,8.88
2022-08-24T05:29:34.011Z,9.18
2022-08-24T05:32:04.661Z,9.82
2022-08-24T05:34:37.764Z,9.35
2022-08-24T05:37:07.879Z,9.48
2022-08-24T05:39:53.939Z,10.18
2022-08-24T05:42:26.968Z,9.00
2022-08-24T05:44:56.723Z,9.60
2022-08-24T05:47:29.408Z,10.10
2022-08-24T05:50:06.685Z,9.52
2022-08-24T05:52:36.845Z,10.00
2022-08-24T05:55:07.707Z,9.25
2022-08-24T06:00:20.396Z,9.88
2022-08-24T06:02:57.906Z,9.57
2022-08-24T06:05:28.009Z,9.65
2022-08-24T06:07:58.101Z,8.55
2022-08-24T06:10:36.617Z,7.25
2022-08-24T06:13:11.501Z,6.55
2022-08-24T06:15:42.723Z,8.05
2022-08-24T06:18:20.832Z,7.13
2022-08-24T06:20:50.714Z,6.75
2022-08-24T06:23:26.614Z,7.00
2022-08-24T06:26:23.258Z,6.00
2022-08-24T06:28:55.873Z,6.35
2022-08-24T06:33:57.418Z,5.25
2022-08-24T06:36:26.614Z,5.53
2022-08-24T06:38:57.348Z,3.92
2022-08-24T06:41:28.004Z,5.13
2022-08-24T06:43:59.771Z,4.93
2022-08-24T06:46:47.109Z,4.43
2022-08-24T06:49:19.241Z,4.13
2022-08-24T06:51:50.915Z,3.63
2022-08-24T06:54:21.215Z,3.70
2022-08-24T06:56:51.641Z,3.85
2022-08-24T06:59:23.194Z,4.07
2022-08-24T07:01:53.710Z,4.40
2022-08-24T07:04:27.520Z,3.78
2022-08-24T07:07:00.814Z,3.92
2022-08-24T07:09:33.595Z,4.10
2022-08-24T07:12:04.705Z,5.03
2022-08-24T07:14:36.100Z,3.90
2022-08-24T07:17:05.817Z,5.95
2022-08-24T07:19:36.017Z,3.30
2022-08-24T07:22:07.582Z,5.30
2022-08-24T07:24:38.017Z,3.40
2022-08-24T07:27:08.296Z,2.75
2022-08-24T07:29:56.488Z,3.15
2022-08-24T07:33:08.713Z,3.63
2022-08-24T07:35:41.609Z,5.15
2022-08-24T07:38:14.454Z,3.47
2022-08-24T07:41:14.347Z,16.15
2022-08-24T07:43:43.089Z,3.67
2022-08-24T07:46:14.759Z,3.35
2022-08-24T07:48:44.931Z,3.65
2022-08-24T07:51:16.517Z,3.40
2022-08-24T07:53:54.641Z,3.05
2022-08-24T07:56:30.558Z,3.00
2022-08-24T07:59:03.476Z,3.70
2022-08-24T08:01:36.275Z,2.80
2022-08-24T08:04:08.100Z,3.22
2022-08-24T08:06:38.236Z,2.35
2022-08-24T08:09:09.856Z,3.42
2022-08-24T08:11:39.723Z,3.30
2022-08-24T08:14:09.108Z,3.13
2022-08-24T08:16:39.694Z,3.10
2022-08-24T08:19:10.677Z,2.33
2022-08-24T08:22:03.139Z,2.28
2022-08-24T08:24:38.394Z,3.22
2022-08-24T08:27:09.229Z,2.63
2022-08-24T08:29:42.306Z,2.50
2022-08-24T08:32:17.343Z,2.25
2022-08-24T08:34:48.770Z,2.58
2022-08-24T08:37:19.146Z,2.22
2022-08-24T08:39:49.180Z,2.50
2022-08-24T08:42:57.225Z,2.70
2022-08-24T08:45:36.532Z,2.38
2022-08-24T08:48:55.521Z,2.33
2022-08-24T08:51:56.780Z,2.08
2022-08-24T08:54:49.849Z,2.45
2022-08-24T08:57:44.068Z,2.20
2022-08-24T09:00:18.244Z,2.20
2022-08-24T09:03:14.336Z,2.42
2022-08-24T09:06:26.749Z,2.13
2022-08-24T09:09:35.134Z,2.20
2022-08-24T09:12:13.033Z,2.78
2022-08-24T09:15:20.988Z,2.50
2022-08-24T09:18:05.924Z,2.30
2022-08-24T09:21:04.662Z,2.13
2022-08-24T09:23:48.016Z,1.95
2022-08-24T09:26:27.201Z,1.83
2022-08-24T09:29:11.310Z,2.60
2022-08-24T09:31:53.071Z,2.10
2022-08-24T09:34:39.296Z,2.25
2022-08-24T09:37:36.362Z,1.90
2022-08-24T09:40:27.368Z,2.50
2022-08-24T09:43:36.975Z,2.35
2022-08-24T09:46:34.629Z,2.10
2022-08-24T09:49:29.331Z,1.98
2022-08-24T09:52:23.131Z,1.40
2022-08-24T09:55:48.139Z,1.80
2022-08-24T09:58:27.329Z,2.20
2022-08-24T10:01:09.107Z,1.60
2022-08-24T10:03:53.680Z,2.00
2022-08-24T10:06:33.356Z,1.88
2022-08-24T10:09:20.657Z,1.75
2022-08-24T10:12:04.117Z,2.08
2022-08-24T10:14:53.017Z,1.80
2022-08-24T10:17:33.314Z,1.67
2022-08-24T10:20:11.519Z,1.55
2022-08-24T10:23:08.228Z,1.90
2022-08-24T10:25:45.375Z,1.73
2022-08-24T10:28:37.945Z,1.75
2022-08-24T10:31:12.911Z,1.88
2022-08-24T10:34:00.755Z,1.80
2022-08-24T10:36:50.511Z,1.95
2022-08-24T10:39:41.510Z,2.08
2022-08-24T10:43:09.489Z,1.63
2022-08-24T10:49:17.399Z,2.15
2022-08-24T10:52:09.454Z,1.98
2022-08-24T10:54:39.176Z,2.20
2022-08-24T10:57:16.876Z,1.73
2022-08-24T10:59:57.118Z,1.73
2022-08-24T11:02:34.295Z,2.22
2022-08-24T11:05:17.256Z,3.03
2022-08-24T11:07:59.106Z,2.20
2022-08-24T11:10:31.895Z,2.05
2022-08-24T11:13:22.130Z,2.13
2022-08-24T11:15:54.553Z,1.77
2022-08-24T11:18:25.453Z,1.75
2022-08-24T11:21:00.715Z,1.88
2022-08-24T11:23:38.821Z,1.58
2022-08-24T11:26:19.813Z,1.75
2022-08-24T11:28:55.723Z,1.58
2022-08-24T11:31:35.959Z,1.88
2022-08-24T11:36:42.840Z,1.33
2022-08-24T11:39:18.586Z,1.90
2022-08-24T11:41:57.330Z,1.80
2022-08-24T11:44:42.631Z,1.80
2022-08-24T11:47:40.964Z,1.88
2022-08-24T11:50:24.588Z,1.40
2022-08-24T11:53:12.146Z,1.60
2022-08-24T11:55:57.501Z,1.38
2022-08-24T11:58:40.159Z,1.98
2022-08-24T12:01:19.374Z,2.35
2022-08-24T12:04:08.984Z,2.15
2022-08-24T12:06:49.235Z,1.75
2022-08-24T12:09:31.928Z,1.88
2022-08-24T12:12:10.680Z,1.42
2022-08-24T12:14:46.286Z,1.73
2022-08-24T12:17:22.029Z,1.67
2022-08-24T12:19:57.077Z,1.75
2022-08-24T12:22:28.584Z,1.80
2022-08-24T12:25:24.455Z,1.80
2022-08-24T12:28:02.234Z,1.60
2022-08-24T12:30:36.283Z,1.65
2022-08-24T12:33:15.840Z,1.60
2022-08-24T12:35:49.560Z,2.33
2022-08-24T12:38:26.648Z,1.50
2022-08-24T12:41:17.717Z,1.80
2022-08-24T12:43:54.879Z,1.55
2022-08-24T12:46:27.725Z,1.73
2022-08-24T12:49:01.594Z,1.95
2022-08-24T12:51:46.393Z,1.65
2022-08-24T12:54:37.107Z,1.70
2022-08-24T12:57:32.586Z,1.55
2022-08-24T13:00:09.617Z,1.65
2022-08-24T13:02:48.305Z,1.60
2022-08-24T13:05:21.020Z,1.85
2022-08-24T13:07:56.278Z,3.15
2022-08-24T13:10:45.152Z,1.50
2022-08-24T13:13:23.949Z,1.60
2022-08-24T13:16:03.566Z,2.10
2022-08-24T13:19:07.966Z,1.60
2022-08-24T13:21:58.883Z,1.98
2022-08-24T13:25:03.051Z,1.60
2022-08-24T13:28:05.793Z,1.40
2022-08-24T13:31:21.054Z,1.77
2022-08-24T13:33:58.542Z,1.65
2022-08-24T13:36:55.295Z,1.83
2022-08-24T13:40:05.817Z,6.65
2022-08-24T13:43:01.205Z,1.70
2022-08-24T13:45:48.074Z,1.70
2022-08-24T13:48:29.176Z,7.38
2022-08-24T13:51:27.002Z,3.47
2022-08-24T13:54:20.030Z,5.78
2022-08-24T13:57:05.225Z,1.17
2022-08-24T13:59:54.829Z,1.50
2022-08-24T14:02:38.723Z,1.13
2022-08-24T14:05:25.903Z,1.40
2022-08-24T14:08:08.231Z,1.20
2022-08-24T14:10:53.759Z,1.52
2022-08-24T14:13:49.655Z,1.40
2022-08-24T14:17:03.157Z,1.60
2022-08-24T14:19:45.796Z,2.17
2022-08-24T14:22:30.259Z,1.83
2022-08-24T14:25:18.320Z,1.55
2022-08-24T14:27:50.622Z,1.25
2022-08-24T14:30:45.950Z,1.27
2022-08-24T14:33:29.864Z,1.27
2022-08-24T14:36:21.054Z,1.23
2022-08-24T14:39:05.211Z,1.33
2022-08-24T14:42:00.021Z,1.30
2022-08-24T14:44:50.531Z,1.40
2022-08-24T14:47:40.102Z,1.30
2022-08-24T14:50:20.390Z,1.23
2022-08-24T14:53:01.560Z,1.52
2022-08-24T14:55:39.674Z,1.25
2022-08-24T14:58:29.360Z,1.50
2022-08-24T15:01:40.764Z,1.35
2022-08-24T15:04:45.103Z,1.50
2022-08-24T15:07:31.317Z,1.73
2022-08-24T15:10:03.763Z,2.03
2022-08-24T15:12:44.238Z,2.58
2022-08-24T15:15:26.882Z,1.63
2022-08-24T15:18:09.500Z,1.85
2022-08-24T15:20:58.799Z,1.38
2022-08-24T15:23:43.490Z,1.73
2022-08-24T15:26:22.683Z,1.48
2022-08-24T15:28:56.800Z,1.85
2022-08-24T15:31:34.211Z,1.92
2022-08-24T15:34:07.315Z,2.17
2022-08-24T15:36:38.646Z,2.10
2022-08-24T15:39:09.747Z,2.10
2022-08-24T15:41:44.290Z,1.80
2022-08-24T15:44:24.485Z,2.53
2022-08-24T15:47:02.028Z,1.87
2022-08-24T15:49:46.832Z,1.77
2022-08-24T15:52:41.664Z,2.13
2022-08-24T15:55:20.047Z,2.10
2022-08-24T15:57:50.076Z,2.13
2022-08-24T16:00:48.023Z,2.40
2022-08-24T16:03:24.312Z,2.83
2022-08-24T16:05:56.877Z,2.08
2022-08-24T16:08:30.763Z,2.15
2022-08-24T16:11:21.597Z,2.47
2022-08-24T16:13:53.602Z,2.15
2022-08-24T16:16:34.444Z,2.70
2022-08-24T16:19:09.998Z,2.15
2022-08-24T16:21:45.396Z,2.60
2022-08-24T16:24:28.244Z,2.35
2022-08-24T16:27:04.752Z,2.35
2022-08-24T16:29:56.036Z,2.63
2022-08-24T16:32:32.032Z,2.72
2022-08-24T16:35:20.942Z,2.47
2022-08-24T16:37:52.544Z,2.63
2022-08-24T16:40:23.548Z,3.38
2022-08-24T16:45:26.352Z,3.10
2022-08-24T16:50:38.287Z,3.25
2022-08-24T16:53:10.915Z,3.25
2022-08-24T16:55:41.445Z,2.80
2022-08-24T16:58:11.555Z,2.90
2022-08-24T17:00:41.873Z,3.40
2022-08-24T17:03:15.136Z,2.90
2022-08-24T17:05:47.756Z,3.58
2022-08-24T17:08:20.025Z,3.28
2022-08-24T17:10:53.013Z,3.88
2022-08-24T17:16:15.087Z,3.40
2022-08-24T17:21:18.562Z,3.92
2022-08-24T17:23:49.092Z,3.85
2022-08-24T17:26:20.705Z,3.22
2022-08-24T17:28:54.726Z,3.83
2022-08-24T17:31:25.566Z,4.10
2022-08-24T17:34:00.345Z,3.85
2022-08-24T17:36:33.746Z,3.90
2022-08-24T17:39:05.478Z,4.03
2022-08-24T17:41:36.516Z,3.78
2022-08-24T17:46:37.839Z,5.18
2022-08-24T17:49:11.113Z,4.38
2022-08-24T17:51:44.403Z,4.20
2022-08-24T17:54:16.131Z,4.35
2022-08-24T17:56:49.266Z,5.20
2022-08-24T17:59:31.244Z,4.82
2022-08-24T18:02:07.297Z,4.15
2022-08-24T18:04:38.147Z,4.88
2022-08-24T18:07:13.613Z,4.32
2022-08-24T18:09:48.357Z,6.10
2022-08-24T18:12:21.544Z,6.28
2022-08-24T18:14:51.929Z,5.10
2022-08-24T18:17:30.829Z,4.70
2022-08-24T18:20:01.356Z,5.07
2022-08-24T18:22:35.352Z,5.22
2022-08-24T18:25:06.416Z,4.10
2022-08-24T18:27:46.020Z,4.63
2022-08-24T18:30:22.478Z,4.50
2022-08-24T18:32:54.428Z,5.30
2022-08-24T18:35:24.639Z,5.13
2022-08-24T18:37:57.451Z,3.83
2022-08-24T18:40:29.180Z,3.65
2022-08-24T18:43:06.331Z,4.40
2022-08-24T18:45:37.487Z,4.88
2022-08-24T18:48:07.850Z,4.55
2022-08-24T18:50:42.044Z,3.90
2022-08-24T18:53:13.737Z,5.00
2022-08-24T18:55:47.350Z,4.43
2022-08-24T18:58:17.566Z,4.55
2022-08-24T19:00:49.045Z,4.23
2022-08-24T19:03:24.000Z,4.07
2022-08-24T19:05:54.762Z,4.28
2022-08-24T19:08:25.881Z,4.32
2022-08-24T19:10:56.427Z,7.53
2022-08-24T19:13:26.678Z,36.25
2022-08-24T19:15:56.074Z,20.00
2022-08-24T19:18:28.624Z,13.00
2022-08-24T19:21:02.499Z,5.63
2022-08-24T19:23:36.987Z,6.82
2022-08-24T19:26:06.660Z,9.48
2022-08-24T19:28:37.204Z,9.07
2022-08-24T19:31:12.497Z,7.20
2022-08-24T19:33:49.812Z,4.75
2022-08-24T19:36:20.642Z,4.53
2022-08-24T19:38:52.153Z,5.07
2022-08-24T19:41:22.807Z,4.63
2022-08-24T19:44:30.947Z,4.45
2022-08-24T19:47:02.355Z,4.35
2022-08-24T19:49:33.330Z,4.68
2022-08-24T19:52:04.532Z,4.95
2022-08-24T19:57:32.037Z,4.72
2022-08-24T20:00:06.721Z,5.22
2022-08-24T20:02:36.200Z,5.55
2022-08-24T20:05:06.556Z,4.75
2022-08-24T20:07:37.808Z,4.88
2022-08-24T20:12:42.870Z,5.82
2022-08-24T20:15:14.172Z,7.65
2022-08-24T20:17:46.265Z,5.85
2022-08-24T20:20:21.420Z,11.80
2022-08-24T20:22:51.415Z,6.60
2022-08-24T20:25:23.066Z,8.52
2022-08-24T20:28:12.425Z,5.88
2022-08-24T20:30:46.896Z,5.72
2022-08-24T20:33:18.427Z,5.10
2022-08-24T20:35:47.830Z,5.45
2022-08-24T20:38:20.000Z,6.45
2022-08-24T20:40:51.831Z,5.55
2022-08-24T20:43:22.346Z,5.03
2022-08-24T20:45:52.987Z,5.25
2022-08-24T20:48:28.595Z,4.40
2022-08-24T20:50:59.000Z,5.40
2022-08-24T20:53:28.898Z,4.68
2022-08-24T20:56:07.631Z,5.32
2022-08-24T20:58:38.122Z,4.43
2022-08-24T21:01:10.165Z,6.68
2022-08-24T21:03:40.591Z,10.60
2022-08-24T21:06:13.988Z,6.20
2022-08-24T21:08:46.480Z,6.40
2022-08-24T21:11:20.311Z,4.80
2022-08-24T21:13:50.319Z,5.10
2022-08-24T21:16:21.006Z,5.15
2022-08-24T21:18:50.535Z,4.85
2022-08-24T21:21:22.283Z,4.95
2022-08-24T21:23:55.328Z,4.22
2022-08-24T21:26:33.066Z,4.57
2022-08-24T21:29:04.351Z,5.75
2022-08-24T21:34:22.307Z,4.50
2022-08-24T21:36:54.195Z,5.50
2022-08-24T21:39:24.254Z,5.13
2022-08-24T21:41:57.650Z,4.60
2022-08-24T21:44:27.316Z,5.88
2022-08-24T21:46:57.092Z,6.25
2022-08-24T21:49:27.118Z,7.05
2022-08-24T21:51:57.919Z,7.22
2022-08-24T21:54:26.972Z,6.38
2022-08-24T21:56:58.727Z,6.22
2022-08-24T21:59:28.381Z,4.80
2022-08-24T22:02:02.261Z,4.35
2022-08-24T22:04:31.946Z,5.10
2022-08-24T22:07:02.727Z,4.35
2022-08-24T22:09:32.498Z,4.20
2022-08-24T22:12:03.099Z,3.42
2022-08-24T22:14:32.908Z,4.15
2022-08-24T22:17:02.703Z,3.38
2022-08-24T22:19:33.093Z,3.28
2022-08-24T22:22:03.810Z,3.10
2022-08-24T22:24:36.963Z,3.65
2022-08-24T22:27:08.113Z,3.60
2022-08-24T22:29:37.272Z,3.45
2022-08-24T22:32:07.132Z,3.47
2022-08-24T22:34:37.682Z,3.33
2022-08-24T22:37:07.294Z,3.30
2022-08-24T22:39:36.921Z,3.88
2022-08-24T22:42:09.220Z,3.50
2022-08-24T22:44:38.377Z,4.00
2022-08-24T22:47:13.129Z,3.90
2022-08-24T22:49:44.826Z,3.28
2022-08-24T22:52:16.115Z,2.97
2022-08-24T22:57:19.800Z,4.25
2022-08-24T22:59:49.172Z,3.85
2022-08-24T23:02:20.986Z,3.95
2022-08-24T23:04:52.608Z,3.85
2022-08-24T23:07:22.709Z,3.70
2022-08-24T23:09:52.308Z,4.18
2022-08-24T23:12:25.002Z,3.58
2022-08-24T23:14:55.039Z,3.90
2022-08-24T23:17:24.701Z,3.80
2022-08-24T23:20:05.537Z,3.67
2022-08-24T23:22:38.179Z,3.00
2022-08-24T23:25:11.740Z,3.85
2022-08-24T23:27:46.553Z,3.72
2022-08-24T23:30:18.588Z,3.88
2022-08-24T23:32:47.921Z,3.40
2022-08-24T23:35:16.717Z,3.65
2022-08-24T23:37:45.805Z,3.78
2022-08-24T23:40:16.264Z,3.90
2022-08-24T23:42:47.020Z,3.15
2022-08-24T23:45:16.227Z,3.80
2022-08-24T23:47:45.614Z,3.38
2022-08-24T23:50:15.065Z,3.47
2022-08-24T23:52:44.444Z,3.40
2022-08-24T23:55:20.315Z,3.53
2022-08-24T23:57:54.433Z,3.40
